Recovery 2 — WDD9405 — position and weather

sailwx.info

Track history (hours):
 
Tides and Currents Weather Stations Pressure Air Temp Water Temp Dewpoint Dewpoint Depression Visibility Wind Speed Wind Dir Waves Ship Positions

Recovery 2

Owner: Marine Spill Response Corporation, Everett, WA. More information available from US FCC via Universal Licensing System and Coast Guard Vessel Documentation Center.

Last reported at 2018-Jun-11 21:20 UTC. Time now 2018-Jun-20 01:58 UTC.
Position N 37°54' W 122°22'.
Warning: this ship's position is 8 days out of date.

Length 28 m.

Type: Pollution control. MMSI: 367310990.

Date/timePositionNaut miles runAvg speedWind from/ knotsBaromVisibWave heightAir tempDewpointWater temp
2018-Jun-11 21:20N 37°54' W 122°22'0 0.5
2018-Jun-11 21:00N 37°54' W 122°22'3 5.9
2018-Jun-11 20:30N 37°51' W 122°23'5 9.8
2018-Jun-11 20:00N 37°48' W 122°19'3 5.7
2018-Jun-11 19:31N 37°47' W 122°15'1 2.5
2018-Jun-11 19:00N 37°48' W 122°17'3 6.7
2018-Jun-11 18:30N 37°48' W 122°21'4 8.7
2018-Jun-11 18:01N 37°49' W 122°26'3 6.2
2018-Jun-11 17:31N 37°49' W 122°30'3 6.5
2018-Jun-11 17:00N 37°51' W 122°28'4 7.9
2018-Jun-11 16:31N 37°54' W 122°25'2 3.7
2018-Jun-11 16:01N 37°54' W 122°22'  
2018-Jun-07 17:04N 37°54' W 122°22'0 0.0
2018-Jun-07 17:00N 37°54' W 122°22'  
Track history (hours):
 
Tides and Currents Weather Stations Pressure Air Temp Water Temp Dewpoint Dewpoint Depression Visibility Wind Speed Wind Dir Waves Ship Positions

Recovery 2

Owner: Marine Spill Response Corporation, Everett, WA. More information available from US FCC via Universal Licensing System and Coast Guard Vessel Documentation Center.

Last reported at 2018-Jun-11 21:20 UTC. Time now 2018-Jun-20 01:58 UTC.
Position N 37°54' W 122°22'.
Warning: this ship's position is 8 days out of date.

Length 28 m.

Type: Pollution control. MMSI: 367310990.

Date/timePositionNaut miles runAvg speedWind from/ knotsBaromVisibWave heightAir tempDewpointWater temp
2018-Jun-11 21:20N 37°54' W 122°22'0 0.5
2018-Jun-11 21:00N 37°54' W 122°22'3 5.9
2018-Jun-11 20:30N 37°51' W 122°23'5 9.8
2018-Jun-11 20:00N 37°48' W 122°19'3 5.7
2018-Jun-11 19:31N 37°47' W 122°15'1 2.5
2018-Jun-11 19:00N 37°48' W 122°17'3 6.7
2018-Jun-11 18:30N 37°48' W 122°21'4 8.7
2018-Jun-11 18:01N 37°49' W 122°26'3 6.2
2018-Jun-11 17:31N 37°49' W 122°30'3 6.5
2018-Jun-11 17:00N 37°51' W 122°28'4 7.9
2018-Jun-11 16:31N 37°54' W 122°25'2 3.7
2018-Jun-11 16:01N 37°54' W 122°22'  
2018-Jun-07 17:04N 37°54' W 122°22'0 0.0
2018-Jun-07 17:00N 37°54' W 122°22'  

Dump ship's entire track history